sensor_id;sensor_type;location;lat;lon;timestamp;pressure;altitude;pressure_sealevel;temperature;humidity
2785;BME280;57944;48.722;9.316;2023-11-18T00:01:31;98913.81;;;3.27;100.00
2785;BME280;57944;48.722;9.316;2023-11-18T00:04:02;98922.34;;;3.36;100.00
2785;BME280;57944;48.722;9.316;2023-11-18T00:06:40;98921.25;;;3.50;100.00
2785;BME280;57944;48.722;9.316;2023-11-18T00:09:11;98919.88;;;3.67;100.00
2785;BME280;57944;48.722;9.316;2023-11-18T00:11:43;98917.84;;;3.81;100.00
2785;BME280;57944;48.722;9.316;2023-11-18T00:14:14;98924.28;;;3.95;100.00
2785;BME280;57944;48.722;9.316;2023-11-18T00:16:45;98921.53;;;4.08;100.00
2785;BME280;57944;48.722;9.316;2023-11-18T00:19:16;98921.72;;;4.16;100.00
2785;BME280;57944;48.722;9.316;2023-11-18T00:21:49;98927.84;;;4.23;100.00
2785;BME280;57944;48.722;9.316;2023-11-18T00:24:20;98921.63;;;4.28;100.00
2785;BME280;57944;48.722;9.316;2023-11-18T00:26:51;98913.78;;;4.31;100.00
2785;BME280;57944;48.722;9.316;2023-11-18T00:29:22;98923.34;;;4.37;100.00
2785;BME280;57944;48.722;9.316;2023-11-18T00:31:53;98913.56;;;4.43;100.00
2785;BME280;57944;48.722;9.316;2023-11-18T00:34:24;98919.50;;;4.33;100.00
2785;BME280;57944;48.722;9.316;2023-11-18T00:36:58;98925.88;;;4.37;100.00
2785;BME280;57944;48.722;9.316;2023-11-18T00:39:29;98922.72;;;4.35;100.00
2785;BME280;57944;48.722;9.316;2023-11-18T00:42:00;98925.50;;;4.41;100.00
2785;BME280;57944;48.722;9.316;2023-11-18T00:44:31;98924.59;;;4.52;100.00
2785;BME280;57944;48.722;9.316;2023-11-18T00:47:02;98916.09;;;4.53;100.00
2785;BME280;57944;48.722;9.316;2023-11-18T00:49:33;98913.84;;;4.50;100.00
2785;BME280;57944;48.722;9.316;2023-11-18T00:52:07;98913.44;;;4.55;100.00
2785;BME280;57944;48.722;9.316;2023-11-18T00:54:37;98916.88;;;4.54;100.00
2785;BME280;57944;48.722;9.316;2023-11-18T00:57:08;98917.81;;;4.62;100.00
2785;BME280;57944;48.722;9.316;2023-11-18T00:59:42;98923.03;;;4.70;100.00
2785;BME280;57944;48.722;9.316;2023-11-18T01:02:13;98922.53;;;4.77;100.00
2785;BME280;57944;48.722;9.316;2023-11-18T01:04:46;98924.63;;;4.81;100.00
2785;BME280;57944;48.722;9.316;2023-11-18T01:07:20;98917.47;;;4.77;100.00
2785;BME280;57944;48.722;9.316;2023-11-18T01:09:51;98919.59;;;4.72;100.00
2785;BME280;57944;48.722;9.316;2023-11-18T01:12:22;98916.66;;;4.76;100.00
2785;BME280;57944;48.722;9.316;2023-11-18T01:14:54;98921.44;;;4.69;100.00
2785;BME280;57944;48.722;9.316;2023-11-18T01:17:24;98921.97;;;4.63;100.00
2785;BME280;57944;48.722;9.316;2023-11-18T01:19:55;98921.69;;;4.66;100.00
2785;BME280;57944;48.722;9.316;2023-11-18T01:22:28;98918.50;;;4.64;100.00
2785;BME280;57944;48.722;9.316;2023-11-18T01:25:02;98925.66;;;4.59;100.00
2785;BME280;57944;48.722;9.316;2023-11-18T01:27:33;98922.66;;;4.65;100.00
2785;BME280;57944;48.722;9.316;2023-11-18T01:30:05;98931.81;;;4.66;100.00
2785;BME280;57944;48.722;9.316;2023-11-18T01:32:37;98939.78;;;4.72;100.00
2785;BME280;57944;48.722;9.316;2023-11-18T01:35:09;98938.97;;;4.61;100.00
2785;BME280;57944;48.722;9.316;2023-11-18T01:37:43;98946.69;;;4.69;100.00
2785;BME280;57944;48.722;9.316;2023-11-18T01:40:17;98943.38;;;4.79;100.00
2785;BME280;57944;48.722;9.316;2023-11-18T01:42:47;98947.78;;;4.77;100.00
2785;BME280;57944;48.722;9.316;2023-11-18T01:45:18;98946.19;;;4.85;100.00
2785;BME280;57944;48.722;9.316;2023-11-18T01:47:48;98948.56;;;4.87;100.00
2785;BME280;57944;48.722;9.316;2023-11-18T01:50:20;98942.31;;;4.72;100.00
2785;BME280;57944;48.722;9.316;2023-11-18T01:52:53;98946.91;;;4.57;100.00
2785;BME280;57944;48.722;9.316;2023-11-18T01:55:24;98955.97;;;4.59;100.00
2785;BME280;57944;48.722;9.316;2023-11-18T01:57:55;98946.94;;;4.66;100.00
2785;BME280;57944;48.722;9.316;2023-11-18T02:00:26;98950.56;;;4.74;100.00
2785;BME280;57944;48.722;9.316;2023-11-18T02:02:58;98947.50;;;4.80;100.00
2785;BME280;57944;48.722;9.316;2023-11-18T02:05:29;98940.09;;;4.88;100.00
2785;BME280;57944;48.722;9.316;2023-11-18T02:08:04;98949.38;;;4.97;100.00
2785;BME280;57944;48.722;9.316;2023-11-18T02:10:36;98947.53;;;4.99;100.00
2785;BME280;57944;48.722;9.316;2023-11-18T02:13:22;98939.28;;;4.97;100.00
2785;BME280;57944;48.722;9.316;2023-11-18T02:15:57;98944.56;;;4.84;100.00
2785;BME280;57944;48.722;9.316;2023-11-18T02:18:31;98945.94;;;4.88;100.00
2785;BME280;57944;48.722;9.316;2023-11-18T02:21:02;98944.31;;;4.87;100.00
2785;BME280;57944;48.722;9.316;2023-11-18T02:23:38;98940.19;;;4.77;100.00
2785;BME280;57944;48.722;9.316;2023-11-18T02:26:21;98942.19;;;4.83;100.00
2785;BME280;57944;48.722;9.316;2023-11-18T02:28:52;98945.00;;;4.80;100.00
2785;BME280;57944;48.722;9.316;2023-11-18T02:31:27;98955.50;;;4.85;100.00
2785;BME280;57944;48.722;9.316;2023-11-18T02:34:04;98948.31;;;4.90;100.00
2785;BME280;57944;48.722;9.316;2023-11-18T02:36:41;98941.66;;;4.89;100.00
2785;BME280;57944;48.722;9.316;2023-11-18T02:39:20;98937.41;;;4.89;100.00
2785;BME280;57944;48.722;9.316;2023-11-18T02:41:55;98940.72;;;4.90;100.00
2785;BME280;57944;48.722;9.316;2023-11-18T02:44:27;98932.38;;;4.80;100.00
2785;BME280;57944;48.722;9.316;2023-11-18T02:47:00;98939.25;;;4.78;100.00
2785;BME280;57944;48.722;9.316;2023-11-18T02:49:34;98931.00;;;4.76;100.00
2785;BME280;57944;48.722;9.316;2023-11-18T02:52:05;98936.31;;;4.73;100.00
2785;BME280;57944;48.722;9.316;2023-11-18T02:54:37;98938.31;;;4.79;100.00
2785;BME280;57944;48.722;9.316;2023-11-18T02:57:10;98936.75;;;4.78;100.00
2785;BME280;57944;48.722;9.316;2023-11-18T02:59:41;98941.94;;;4.86;100.00
2785;BME280;57944;48.722;9.316;2023-11-18T03:02:14;98935.28;;;4.85;100.00
2785;BME280;57944;48.722;9.316;2023-11-18T03:04:48;98938.47;;;4.87;100.00
2785;BME280;57944;48.722;9.316;2023-11-18T03:07:19;98931.16;;;4.84;100.00
2785;BME280;57944;48.722;9.316;2023-11-18T03:09:50;98930.25;;;4.85;100.00
2785;BME280;57944;48.722;9.316;2023-11-18T03:12:24;98929.97;;;4.88;100.00
2785;BME280;57944;48.722;9.316;2023-11-18T03:14:56;98934.13;;;4.99;100.00
2785;BME280;57944;48.722;9.316;2023-11-18T03:17:27;98934.91;;;4.99;100.00
2785;BME280;57944;48.722;9.316;2023-11-18T03:19:57;98931.84;;;4.86;100.00
2785;BME280;57944;48.722;9.316;2023-11-18T03:22:28;98931.00;;;4.76;100.00
2785;BME280;57944;48.722;9.316;2023-11-18T03:24:59;98927.44;;;4.68;100.00
2785;BME280;57944;48.722;9.316;2023-11-18T03:27:32;98931.81;;;4.66;100.00
2785;BME280;57944;48.722;9.316;2023-11-18T03:30:04;98930.97;;;4.56;100.00
2785;BME280;57944;48.722;9.316;2023-11-18T03:32:35;98928.97;;;4.40;100.00
2785;BME280;57944;48.722;9.316;2023-11-18T03:35:08;98937.84;;;4.35;100.00
2785;BME280;57944;48.722;9.316;2023-11-18T03:37:40;98933.28;;;4.29;100.00
2785;BME280;57944;48.722;9.316;2023-11-18T03:40:12;98924.81;;;4.30;100.00
2785;BME280;57944;48.722;9.316;2023-11-18T03:42:46;98942.72;;;4.27;100.00
2785;BME280;57944;48.722;9.316;2023-11-18T03:45:16;98942.81;;;4.15;100.00
2785;BME280;57944;48.722;9.316;2023-11-18T03:47:48;98943.81;;;4.03;100.00
2785;BME280;57944;48.722;9.316;2023-11-18T03:50:19;98946.22;;;4.05;100.00
2785;BME280;57944;48.722;9.316;2023-11-18T03:52:50;98948.06;;;4.02;100.00
2785;BME280;57944;48.722;9.316;2023-11-18T03:55:21;98946.50;;;4.11;100.00
2785;BME280;57944;48.722;9.316;2023-11-18T03:57:54;98953.47;;;4.29;100.00
2785;BME280;57944;48.722;9.316;2023-11-18T04:00:25;98953.63;;;4.27;100.00
2785;BME280;57944;48.722;9.316;2023-11-18T04:02:57;98944.22;;;4.39;100.00
2785;BME280;57944;48.722;9.316;2023-11-18T04:05:28;98953.53;;;4.48;100.00
2785;BME280;57944;48.722;9.316;2023-11-18T04:08:00;98949.59;;;4.55;100.00
2785;BME280;57944;48.722;9.316;2023-11-18T04:10:31;98955.69;;;4.62;100.00
2785;BME280;57944;48.722;9.316;2023-11-18T04:13:04;98946.00;;;4.67;100.00
2785;BME280;57944;48.722;9.316;2023-11-18T04:15:35;98942.16;;;4.63;100.00
2785;BME280;57944;48.722;9.316;2023-11-18T04:18:06;98951.75;;;4.69;100.00
2785;BME280;57944;48.722;9.316;2023-11-18T04:20:37;98944.44;;;4.66;100.00
2785;BME280;57944;48.722;9.316;2023-11-18T04:23:07;98945.47;;;4.64;100.00
2785;BME280;57944;48.722;9.316;2023-11-18T04:25:39;98956.63;;;4.61;100.00
2785;BME280;57944;48.722;9.316;2023-11-18T04:28:12;98961.00;;;4.59;100.00
2785;BME280;57944;48.722;9.316;2023-11-18T04:30:43;98953.84;;;4.64;100.00
2785;BME280;57944;48.722;9.316;2023-11-18T04:33:14;98953.44;;;4.59;100.00
2785;BME280;57944;48.722;9.316;2023-11-18T04:35:46;98951.72;;;4.60;100.00
2785;BME280;57944;48.722;9.316;2023-11-18T04:38:17;98955.97;;;4.59;100.00
2785;BME280;57944;48.722;9.316;2023-11-18T04:40:47;98949.06;;;4.61;100.00
2785;BME280;57944;48.722;9.316;2023-11-18T04:43:21;98939.50;;;4.55;100.00
2785;BME280;57944;48.722;9.316;2023-11-18T04:46:08;98953.00;;;4.44;100.00
2785;BME280;57944;48.722;9.316;2023-11-18T04:48:40;98953.22;;;4.32;100.00
2785;BME280;57944;48.722;9.316;2023-11-18T04:51:11;98939.03;;;4.31;100.00
2785;BME280;57944;48.722;9.316;2023-11-18T04:53:42;98945.25;;;4.27;100.00
2785;BME280;57944;48.722;9.316;2023-11-18T04:56:12;98946.16;;;4.25;100.00
2785;BME280;57944;48.722;9.316;2023-11-18T04:58:48;98938.84;;;4.22;100.00
2785;BME280;57944;48.722;9.316;2023-11-18T05:01:19;98942.56;;;4.18;100.00
2785;BME280;57944;48.722;9.316;2023-11-18T05:03:50;98941.22;;;4.14;100.00
2785;BME280;57944;48.722;9.316;2023-11-18T05:06:20;98939.09;;;4.10;100.00
2785;BME280;57944;48.722;9.316;2023-11-18T05:08:51;98940.13;;;4.07;100.00
2785;BME280;57944;48.722;9.316;2023-11-18T05:11:22;98939.72;;;4.02;100.00
2785;BME280;57944;48.722;9.316;2023-11-18T05:13:55;98940.41;;;4.04;100.00
2785;BME280;57944;48.722;9.316;2023-11-18T05:16:27;98942.50;;;3.99;100.00
2785;BME280;57944;48.722;9.316;2023-11-18T05:18:57;98942.19;;;3.92;100.00
2785;BME280;57944;48.722;9.316;2023-11-18T05:21:28;98945.38;;;3.94;100.00
2785;BME280;57944;48.722;9.316;2023-11-18T05:23:59;98952.06;;;4.05;100.00
2785;BME280;57944;48.722;9.316;2023-11-18T05:26:30;98948.09;;;4.12;100.00
2785;BME280;57944;48.722;9.316;2023-11-18T05:29:05;98941.91;;;4.16;100.00
2785;BME280;57944;48.722;9.316;2023-11-18T05:31:35;98939.38;;;4.16;100.00
2785;BME280;57944;48.722;9.316;2023-11-18T05:34:06;98949.72;;;4.13;100.00
2785;BME280;57944;48.722;9.316;2023-11-18T05:36:37;98936.25;;;4.03;100.00
2785;BME280;57944;48.722;9.316;2023-11-18T05:39:08;98951.47;;;3.92;100.00
2785;BME280;57944;48.722;9.316;2023-11-18T05:41:39;98936.84;;;3.86;100.00
2785;BME280;57944;48.722;9.316;2023-11-18T05:44:16;98931.50;;;3.79;100.00
2785;BME280;57944;48.722;9.316;2023-11-18T05:46:49;98931.38;;;3.80;100.00
2785;BME280;57944;48.722;9.316;2023-11-18T05:49:20;98934.16;;;3.77;100.00
2785;BME280;57944;48.722;9.316;2023-11-18T05:51:52;98935.72;;;3.78;100.00
2785;BME280;57944;48.722;9.316;2023-11-18T05:54:22;98938.16;;;3.80;100.00
2785;BME280;57944;48.722;9.316;2023-11-18T05:56:53;98937.47;;;3.78;100.00
2785;BME280;57944;48.722;9.316;2023-11-18T05:59:29;98930.75;;;3.67;100.00
2785;BME280;57944;48.722;9.316;2023-11-18T06:02:00;98929.78;;;3.58;100.00
2785;BME280;57944;48.722;9.316;2023-11-18T06:04:31;98925.75;;;3.46;100.00
2785;BME280;57944;48.722;9.316;2023-11-18T06:07:02;98924.31;;;3.32;100.00
2785;BME280;57944;48.722;9.316;2023-11-18T06:09:33;98922.91;;;3.19;100.00
2785;BME280;57944;48.722;9.316;2023-11-18T06:12:04;98920.91;;;3.01;100.00
2785;BME280;57944;48.722;9.316;2023-11-18T06:14:39;98919.03;;;2.82;100.00
2785;BME280;57944;48.722;9.316;2023-11-18T06:17:09;98919.84;;;2.72;100.00
2785;BME280;57944;48.722;9.316;2023-11-18T06:19:40;98904.34;;;2.55;100.00
2785;BME280;57944;48.722;9.316;2023-11-18T06:22:11;98909.94;;;2.47;100.00
2785;BME280;57944;48.722;9.316;2023-11-18T06:24:42;98919.47;;;2.33;100.00
2785;BME280;57944;48.722;9.316;2023-11-18T06:27:13;98917.06;;;2.31;100.00
2785;BME280;57944;48.722;9.316;2023-11-18T06:29:49;98908.84;;;2.29;100.00
2785;BME280;57944;48.722;9.316;2023-11-18T06:32:22;98909.97;;;2.36;100.00
2785;BME280;57944;48.722;9.316;2023-11-18T06:34:53;98929.44;;;2.34;100.00
2785;BME280;57944;48.722;9.316;2023-11-18T06:37:24;98939.03;;;2.29;100.00
2785;BME280;57944;48.722;9.316;2023-11-18T06:39:54;98946.22;;;2.34;100.00
2785;BME280;57944;48.722;9.316;2023-11-18T06:42:25;98952.16;;;2.33;100.00
2785;BME280;57944;48.722;9.316;2023-11-18T06:44:59;98953.66;;;2.35;100.00
2785;BME280;57944;48.722;9.316;2023-11-18T06:47:30;98952.28;;;2.54;100.00
2785;BME280;57944;48.722;9.316;2023-11-18T06:50:02;98957.94;;;2.67;100.00
2785;BME280;57944;48.722;9.316;2023-11-18T06:52:37;98953.81;;;2.77;100.00
2785;BME280;57944;48.722;9.316;2023-11-18T06:55:11;98948.31;;;2.83;100.00
2785;BME280;57944;48.722;9.316;2023-11-18T06:57:43;98939.97;;;2.83;100.00
2785;BME280;57944;48.722;9.316;2023-11-18T07:00:17;98944.31;;;2.81;100.00
2785;BME280;57944;48.722;9.316;2023-11-18T07:02:49;98929.22;;;2.81;100.00
2785;BME280;57944;48.722;9.316;2023-11-18T07:05:21;98932.50;;;2.81;100.00
2785;BME280;57944;48.722;9.316;2023-11-18T07:07:52;98932.31;;;2.84;100.00
2785;BME280;57944;48.722;9.316;2023-11-18T07:10:22;98930.66;;;2.95;100.00
2785;BME280;57944;48.722;9.316;2023-11-18T07:12:55;98933.38;;;3.03;100.00
2785;BME280;57944;48.722;9.316;2023-11-18T07:15:30;98935.66;;;3.06;100.00
2785;BME280;57944;48.722;9.316;2023-11-18T07:18:00;98937.69;;;3.12;100.00
2785;BME280;57944;48.722;9.316;2023-11-18T07:20:31;98935.34;;;3.20;100.00
2785;BME280;57944;48.722;9.316;2023-11-18T07:23:02;98948.16;;;3.28;100.00
2785;BME280;57944;48.722;9.316;2023-11-18T07:25:32;98953.13;;;3.40;100.00
2785;BME280;57944;48.722;9.316;2023-11-18T07:28:03;98950.94;;;3.46;100.00
2785;BME280;57944;48.722;9.316;2023-11-18T07:30:39;98957.69;;;3.67;100.00
2785;BME280;57944;48.722;9.316;2023-11-18T07:33:10;98965.75;;;3.81;100.00
2785;BME280;57944;48.722;9.316;2023-11-18T07:35:40;98970.09;;;4.00;100.00
2785;BME280;57944;48.722;9.316;2023-11-18T07:38:11;98954.75;;;4.13;100.00
2785;BME280;57944;48.722;9.316;2023-11-18T07:40:42;98956.69;;;4.31;100.00
2785;BME280;57944;48.722;9.316;2023-11-18T07:43:13;98954.38;;;4.58;100.00
2785;BME280;57944;48.722;9.316;2023-11-18T07:45:47;98963.69;;;4.67;100.00
2785;BME280;57944;48.722;9.316;2023-11-18T07:48:20;98958.53;;;4.79;100.00
2785;BME280;57944;48.722;9.316;2023-11-18T07:50:51;98952.97;;;4.85;100.00
2785;BME280;57944;48.722;9.316;2023-11-18T07:53:22;98942.47;;;4.99;100.00
2785;BME280;57944;48.722;9.316;2023-11-18T07:55:53;98947.38;;;5.20;100.00
2785;BME280;57944;48.722;9.316;2023-11-18T07:58:23;98944.59;;;5.43;100.00
2785;BME280;57944;48.722;9.316;2023-11-18T08:00:57;98944.97;;;5.48;100.00
2785;BME280;57944;48.722;9.316;2023-11-18T08:03:28;98938.72;;;5.42;100.00
2785;BME280;57944;48.722;9.316;2023-11-18T08:05:58;98942.72;;;5.54;100.00
2785;BME280;57944;48.722;9.316;2023-11-18T08:08:29;98945.91;;;5.47;100.00
2785;BME280;57944;48.722;9.316;2023-11-18T08:11:00;98960.44;;;5.54;100.00
2785;BME280;57944;48.722;9.316;2023-11-18T08:13:32;98955.72;;;5.59;100.00
2785;BME280;57944;48.722;9.316;2023-11-18T08:16:06;98966.09;;;5.76;100.00
2785;BME280;57944;48.722;9.316;2023-11-18T08:18:37;98955.81;;;5.87;100.00
2785;BME280;57944;48.722;9.316;2023-11-18T08:21:08;98957.81;;;6.03;100.00
2785;BME280;57944;48.722;9.316;2023-11-18T08:23:40;98953.34;;;6.15;100.00
2785;BME280;57944;48.722;9.316;2023-11-18T08:26:12;98962.28;;;6.19;100.00
2785;BME280;57944;48.722;9.316;2023-11-18T08:28:42;98954.69;;;6.19;100.00
2785;BME280;57944;48.722;9.316;2023-11-18T08:31:16;98960.66;;;6.28;100.00
2785;BME280;57944;48.722;9.316;2023-11-18T08:33:47;98972.03;;;6.41;100.00
2785;BME280;57944;48.722;9.316;2023-11-18T08:36:17;98978.31;;;6.65;100.00
2785;BME280;57944;48.722;9.316;2023-11-18T08:38:48;98973.50;;;6.71;100.00
2785;BME280;57944;48.722;9.316;2023-11-18T08:41:18;98969.38;;;6.88;100.00
2785;BME280;57944;48.722;9.316;2023-11-18T08:43:50;98961.50;;;6.91;100.00
2785;BME280;57944;48.722;9.316;2023-11-18T08:46:23;98972.00;;;6.97;100.00
2785;BME280;57944;48.722;9.316;2023-11-18T08:48:55;98963.28;;;6.99;100.00
2785;BME280;57944;48.722;9.316;2023-11-18T08:51:25;98969.16;;;7.18;100.00
2785;BME280;57944;48.722;9.316;2023-11-18T08:53:56;98960.25;;;7.31;100.00
2785;BME280;57944;48.722;9.316;2023-11-18T08:56:27;98960.66;;;7.45;100.00
2785;BME280;57944;48.722;9.316;2023-11-18T08:59:02;98969.38;;;7.68;100.00
2785;BME280;57944;48.722;9.316;2023-11-18T09:01:39;98969.44;;;7.76;100.00
2785;BME280;57944;48.722;9.316;2023-11-18T09:04:14;98954.50;;;7.73;100.00
2785;BME280;57944;48.722;9.316;2023-11-18T09:06:47;98944.84;;;7.51;100.00
2785;BME280;57944;48.722;9.316;2023-11-18T09:09:19;98940.88;;;7.74;100.00
2785;BME280;57944;48.722;9.316;2023-11-18T09:11:54;98946.81;;;7.83;100.00
2785;BME280;57944;48.722;9.316;2023-11-18T09:14:26;98945.38;;;7.80;100.00
2785;BME280;57944;48.722;9.316;2023-11-18T09:16:59;98946.31;;;7.79;100.00
2785;BME280;57944;48.722;9.316;2023-11-18T09:19:29;98949.44;;;7.73;100.00
2785;BME280;57944;48.722;9.316;2023-11-18T09:22:00;98954.41;;;7.57;100.00
2785;BME280;57944;48.722;9.316;2023-11-18T09:24:33;98963.47;;;7.59;100.00
2785;BME280;57944;48.722;9.316;2023-11-18T09:27:04;98954.28;;;7.58;100.00
2785;BME280;57944;48.722;9.316;2023-11-18T09:29:37;98954.09;;;7.60;100.00
2785;BME280;57944;48.722;9.316;2023-11-18T09:32:10;98957.94;;;7.64;100.00
2785;BME280;57944;48.722;9.316;2023-11-18T09:34:42;98949.31;;;7.75;100.00
2785;BME280;57944;48.722;9.316;2023-11-18T09:37:14;98954.22;;;8.11;100.00
2785;BME280;57944;48.722;9.316;2023-11-18T09:39:44;98956.16;;;8.43;100.00
2785;BME280;57944;48.722;9.316;2023-11-18T09:42:20;98952.09;;;8.75;100.00
2785;BME280;57944;48.722;9.316;2023-11-18T09:44:52;98950.72;;;9.05;100.00
2785;BME280;57944;48.722;9.316;2023-11-18T09:47:26;98955.50;;;9.24;100.00
2785;BME280;57944;48.722;9.316;2023-11-18T09:49:57;98959.47;;;9.59;100.00
2785;BME280;57944;48.722;9.316;2023-11-18T09:52:31;98960.09;;;9.70;100.00
2785;BME280;57944;48.722;9.316;2023-11-18T09:55:07;98959.41;;;9.84;100.00
2785;BME280;57944;48.722;9.316;2023-11-18T09:57:46;98955.88;;;9.93;100.00
2785;BME280;57944;48.722;9.316;2023-11-18T10:00:27;98952.47;;;10.17;100.00
2785;BME280;57944;48.722;9.316;2023-11-18T10:03:03;98947.56;;;10.07;100.00
2785;BME280;57944;48.722;9.316;2023-11-18T10:05:36;98946.53;;;10.33;100.00
2785;BME280;57944;48.722;9.316;2023-11-18T10:08:10;98952.97;;;10.83;100.00
2785;BME280;57944;48.722;9.316;2023-11-18T10:10:46;98950.81;;;10.72;100.00
2785;BME280;57944;48.722;9.316;2023-11-18T10:13:17;98943.91;;;11.04;100.00
2785;BME280;57944;48.722;9.316;2023-11-18T10:15:52;98933.72;;;11.04;100.00
2785;BME280;57944;48.722;9.316;2023-11-18T10:18:28;98936.28;;;11.18;100.00
2785;BME280;57944;48.722;9.316;2023-11-18T10:21:03;98933.44;;;11.36;100.00
2785;BME280;57944;48.722;9.316;2023-11-18T10:23:35;98934.38;;;11.21;100.00
2785;BME280;57944;48.722;9.316;2023-11-18T10:26:07;98938.03;;;11.41;100.00
2785;BME280;57944;48.722;9.316;2023-11-18T10:28:37;98931.28;;;11.48;100.00
2785;BME280;57944;48.722;9.316;2023-11-18T10:31:08;98928.59;;;11.41;100.00
2785;BME280;57944;48.722;9.316;2023-11-18T10:33:46;98926.88;;;11.19;100.00
2785;BME280;57944;48.722;9.316;2023-11-18T10:36:20;98929.16;;;11.14;100.00
2785;BME280;57944;48.722;9.316;2023-11-18T10:38:53;98943.09;;;11.26;100.00
2785;BME280;57944;48.722;9.316;2023-11-18T10:41:24;98934.72;;;11.17;100.00
2785;BME280;57944;48.722;9.316;2023-11-18T10:44:08;98933.44;;;11.36;100.00
2785;BME280;57944;48.722;9.316;2023-11-18T10:46:51;98929.94;;;11.37;100.00
2785;BME280;57944;48.722;9.316;2023-11-18T10:49:30;98933.44;;;11.36;100.00
2785;BME280;57944;48.722;9.316;2023-11-18T10:52:08;98928.09;;;11.61;100.00
2785;BME280;57944;48.722;9.316;2023-11-18T10:54:50;98927.53;;;11.89;100.00
2785;BME280;57944;48.722;9.316;2023-11-18T10:57:23;98924.72;;;11.98;100.00
2785;BME280;57944;48.722;9.316;2023-11-18T11:00:00;98922.66;;;12.08;100.00
2785;BME280;57944;48.722;9.316;2023-11-18T11:02:41;98919.06;;;11.73;100.00
2785;BME280;57944;48.722;9.316;2023-11-18T11:05:28;98912.19;;;11.59;100.00
2785;BME280;57944;48.722;9.316;2023-11-18T11:08:02;98914.53;;;11.60;100.00
2785;BME280;57944;48.722;9.316;2023-11-18T11:10:33;98894.91;;;11.46;100.00
2785;BME280;57944;48.722;9.316;2023-11-18T11:13:08;98891.03;;;11.65;100.00
2785;BME280;57944;48.722;9.316;2023-11-18T11:15:42;98898.97;;;11.70;100.00
2785;BME280;57944;48.722;9.316;2023-11-18T11:18:26;98906.47;;;11.87;100.00
2785;BME280;57944;48.722;9.316;2023-11-18T11:21:10;98903.81;;;11.80;100.00
2785;BME280;57944;48.722;9.316;2023-11-18T11:23:49;98904.94;;;11.77;100.00
2785;BME280;57944;48.722;9.316;2023-11-18T11:26:33;98904.94;;;11.77;100.00
2785;BME280;57944;48.722;9.316;2023-11-18T11:29:24;98903.34;;;11.61;100.00
2785;BME280;57944;48.722;9.316;2023-11-18T11:32:05;98902.28;;;11.56;100.00
2785;BME280;57944;48.722;9.316;2023-11-18T11:34:41;98894.63;;;11.56;100.00
2785;BME280;57944;48.722;9.316;2023-11-18T11:37:18;98898.44;;;11.60;100.00
2785;BME280;57944;48.722;9.316;2023-11-18T11:39:51;98898.78;;;11.57;100.00
2785;BME280;57944;48.722;9.316;2023-11-18T11:42:24;98888.41;;;11.73;100.00
2785;BME280;57944;48.722;9.316;2023-11-18T11:44:55;98884.34;;;11.64;100.00
2785;BME280;57944;48.722;9.316;2023-11-18T11:47:27;98881.28;;;11.54;100.00
2785;BME280;57944;48.722;9.316;2023-11-18T11:50:10;98870.78;;;11.49;100.00
2785;BME280;57944;48.722;9.316;2023-11-18T11:52:56;98878.53;;;11.40;100.00
2785;BME280;57944;48.722;9.316;2023-11-18T11:55:37;98866.31;;;11.51;100.00
2785;BME280;57944;48.722;9.316;2023-11-18T11:58:26;98864.09;;;11.48;100.00
2785;BME280;57944;48.722;9.316;2023-11-18T12:01:00;98850.34;;;11.19;100.00
2785;BME280;57944;48.722;9.316;2023-11-18T12:03:40;98854.75;;;11.25;100.00
2785;BME280;57944;48.722;9.316;2023-11-18T12:06:13;98844.34;;;11.12;100.00
2785;BME280;57944;48.722;9.316;2023-11-18T12:08:47;98847.06;;;10.95;100.00
2785;BME280;57944;48.722;9.316;2023-11-18T12:11:19;98848.75;;;10.80;100.00
2785;BME280;57944;48.722;9.316;2023-11-18T12:14:04;98849.22;;;10.84;100.00
2785;BME280;57944;48.722;9.316;2023-11-18T12:17:02;98846.06;;;10.59;100.00
2785;BME280;57944;48.722;9.316;2023-11-18T12:19:36;98840.22;;;10.73;100.00
2785;BME280;57944;48.722;9.316;2023-11-18T12:22:13;98834.44;;;10.79;100.00
2785;BME280;57944;48.722;9.316;2023-11-18T12:28:11;98796.34;;;10.78;100.00
2785;BME280;57944;48.722;9.316;2023-11-18T12:30:44;98789.66;;;10.77;100.00
2785;BME280;57944;48.722;9.316;2023-11-18T12:33:24;98783.78;;;10.76;100.00
2785;BME280;57944;48.722;9.316;2023-11-18T12:36:31;98781.84;;;10.78;100.00
2785;BME280;57944;48.722;9.316;2023-11-18T12:42:45;98779.47;;;10.91;100.00
2785;BME280;57944;48.722;9.316;2023-11-18T12:45:59;98776.75;;;10.78;100.00
2785;BME280;57944;48.722;9.316;2023-11-18T12:48:34;98764.09;;;10.70;100.00
2785;BME280;57944;48.722;9.316;2023-11-18T12:51:08;98757.81;;;10.72;100.00
2785;BME280;57944;48.722;9.316;2023-11-18T12:53:50;98762.13;;;10.72;100.00
2785;BME280;57944;48.722;9.316;2023-11-18T12:56:21;98766.94;;;10.67;100.00
2785;BME280;57944;48.722;9.316;2023-11-18T12:58:53;98759.59;;;10.72;100.00
2785;BME280;57944;48.722;9.316;2023-11-18T13:01:26;98767.44;;;10.85;100.00
2785;BME280;57944;48.722;9.316;2023-11-18T13:04:01;98761.13;;;10.81;100.00
2785;BME280;57944;48.722;9.316;2023-11-18T13:06:32;98752.19;;;10.62;100.00
2785;BME280;57944;48.722;9.316;2023-11-18T13:09:03;98747.22;;;10.46;100.00
2785;BME280;57944;48.722;9.316;2023-11-18T13:11:37;98748.38;;;10.43;100.00
2785;BME280;57944;48.722;9.316;2023-11-18T13:14:10;98747.34;;;10.29;100.00
2785;BME280;57944;48.722;9.316;2023-11-18T13:16:44;98752.13;;;10.24;100.00
2785;BME280;57944;48.722;9.316;2023-11-18T13:19:24;98759.69;;;10.18;100.00
2785;BME280;57944;48.722;9.316;2023-11-18T13:21:59;98756.06;;;10.12;100.00
2785;BME280;57944;48.722;9.316;2023-11-18T13:24:31;98755.47;;;10.02;100.00
2785;BME280;57944;48.722;9.316;2023-11-18T13:27:07;98740.88;;;9.96;100.00
2785;BME280;57944;48.722;9.316;2023-11-18T13:29:39;98735.53;;;9.82;100.00
2785;BME280;57944;48.722;9.316;2023-11-18T13:32:13;98737.97;;;9.76;100.00
2785;BME280;57944;48.722;9.316;2023-11-18T13:34:44;98746.00;;;9.56;100.00
2785;BME280;57944;48.722;9.316;2023-11-18T13:37:15;98736.47;;;9.58;100.00
2785;BME280;57944;48.722;9.316;2023-11-18T13:39:54;98735.13;;;9.39;100.00
2785;BME280;57944;48.722;9.316;2023-11-18T13:42:26;98727.06;;;9.28;100.00
2785;BME280;57944;48.722;9.316;2023-11-18T13:45:00;98720.94;;;9.06;100.00
2785;BME280;57944;48.722;9.316;2023-11-18T13:47:37;98708.38;;;8.96;100.00